sensor_id;sensor_type;location;lat;lon;timestamp;P1;durP1;ratioP1;P2;durP2;ratioP2
26319;SDS011;14024;52.226;5.200;2023-04-07T00:00:55;28.13;;;11.43;;
26319;SDS011;14024;52.226;5.200;2023-04-07T00:03:21;35.45;;;11.90;;
26319;SDS011;14024;52.226;5.200;2023-04-07T00:05:47;35.63;;;11.30;;
26319;SDS011;14024;52.226;5.200;2023-04-07T00:08:13;38.30;;;12.30;;
26319;SDS011;14024;52.226;5.200;2023-04-07T00:10:40;33.72;;;11.40;;
26319;SDS011;14024;52.226;5.200;2023-04-07T00:13:06;29.55;;;11.30;;
26319;SDS011;14024;52.226;5.200;2023-04-07T00:15:32;35.15;;;11.07;;
26319;SDS011;14024;52.226;5.200;2023-04-07T00:17:58;34.35;;;11.07;;
26319;SDS011;14024;52.226;5.200;2023-04-07T00:20:24;31.63;;;10.25;;
26319;SDS011;14024;52.226;5.200;2023-04-07T00:22:50;32.08;;;10.73;;
26319;SDS011;14024;52.226;5.200;2023-04-07T00:25:16;41.13;;;10.98;;
26319;SDS011;14024;52.226;5.200;2023-04-07T00:27:42;29.67;;;9.95;;
26319;SDS011;14024;52.226;5.200;2023-04-07T00:30:08;29.13;;;11.00;;
26319;SDS011;14024;52.226;5.200;2023-04-07T00:32:34;34.63;;;11.77;;
26319;SDS011;14024;52.226;5.200;2023-04-07T00:35:00;35.25;;;11.93;;
26319;SDS011;14024;52.226;5.200;2023-04-07T00:37:26;33.53;;;11.45;;
26319;SDS011;14024;52.226;5.200;2023-04-07T00:39:52;34.83;;;12.15;;
26319;SDS011;14024;52.226;5.200;2023-04-07T00:42:18;26.73;;;11.45;;
26319;SDS011;14024;52.226;5.200;2023-04-07T00:44:44;31.25;;;12.05;;
26319;SDS011;14024;52.226;5.200;2023-04-07T00:47:11;39.65;;;13.20;;
26319;SDS011;14024;52.226;5.200;2023-04-07T00:49:37;34.95;;;12.35;;
26319;SDS011;14024;52.226;5.200;2023-04-07T00:52:03;34.67;;;14.05;;
26319;SDS011;14024;52.226;5.200;2023-04-07T00:54:32;38.47;;;13.25;;
26319;SDS011;14024;52.226;5.200;2023-04-07T00:56:58;30.77;;;12.52;;
26319;SDS011;14024;52.226;5.200;2023-04-07T00:59:25;38.67;;;13.63;;
26319;SDS011;14024;52.226;5.200;2023-04-07T01:02:04;39.80;;;13.57;;
26319;SDS011;14024;52.226;5.200;2023-04-07T01:04:55;40.33;;;14.93;;
26319;SDS011;14024;52.226;5.200;2023-04-07T01:07:25;32.90;;;13.90;;
26319;SDS011;14024;52.226;5.200;2023-04-07T01:10:00;38.35;;;13.90;;
26319;SDS011;14024;52.226;5.200;2023-04-07T01:14:54;41.45;;;15.73;;
26319;SDS011;14024;52.226;5.200;2023-04-07T01:17:24;45.25;;;16.63;;
26319;SDS011;14024;52.226;5.200;2023-04-07T01:20:00;42.40;;;15.10;;
26319;SDS011;14024;52.226;5.200;2023-04-07T01:22:45;48.10;;;15.82;;
26319;SDS011;14024;52.226;5.200;2023-04-07T01:30:31;40.75;;;13.70;;
26319;SDS011;14024;52.226;5.200;2023-04-07T01:32:57;39.05;;;13.68;;
26319;SDS011;14024;52.226;5.200;2023-04-07T01:35:23;42.15;;;14.35;;
26319;SDS011;14024;52.226;5.200;2023-04-07T01:37:52;40.15;;;13.13;;
26319;SDS011;14024;52.226;5.200;2023-04-07T01:40:18;36.67;;;12.95;;
26319;SDS011;14024;52.226;5.200;2023-04-07T01:42:46;45.30;;;13.80;;
26319;SDS011;14024;52.226;5.200;2023-04-07T01:45:13;42.80;;;13.57;;
26319;SDS011;14024;52.226;5.200;2023-04-07T01:47:39;31.77;;;11.77;;
26319;SDS011;14024;52.226;5.200;2023-04-07T01:50:06;29.17;;;11.18;;
26319;SDS011;14024;52.226;5.200;2023-04-07T01:52:33;34.47;;;12.93;;
26319;SDS011;14024;52.226;5.200;2023-04-07T01:55:00;30.50;;;12.63;;
26319;SDS011;14024;52.226;5.200;2023-04-07T01:57:26;30.27;;;12.18;;
26319;SDS011;14024;52.226;5.200;2023-04-07T01:59:52;37.83;;;13.45;;
26319;SDS011;14024;52.226;5.200;2023-04-07T02:02:18;30.52;;;12.02;;
26319;SDS011;14024;52.226;5.200;2023-04-07T02:04:48;34.05;;;12.45;;
26319;SDS011;14024;52.226;5.200;2023-04-07T02:07:28;36.72;;;13.75;;
26319;SDS011;14024;52.226;5.200;2023-04-07T02:09:57;34.15;;;12.05;;
26319;SDS011;14024;52.226;5.200;2023-04-07T02:12:24;33.25;;;10.88;;
26319;SDS011;14024;52.226;5.200;2023-04-07T02:14:52;33.55;;;12.90;;
26319;SDS011;14024;52.226;5.200;2023-04-07T02:17:18;41.25;;;11.65;;
26319;SDS011;14024;52.226;5.200;2023-04-07T02:19:44;30.65;;;10.80;;
26319;SDS011;14024;52.226;5.200;2023-04-07T02:22:10;30.33;;;10.73;;
26319;SDS011;14024;52.226;5.200;2023-04-07T02:24:39;33.53;;;10.95;;
26319;SDS011;14024;52.226;5.200;2023-04-07T02:27:06;35.97;;;12.30;;
26319;SDS011;14024;52.226;5.200;2023-04-07T02:29:32;29.52;;;10.18;;
26319;SDS011;14024;52.226;5.200;2023-04-07T02:31:58;32.10;;;10.73;;
26319;SDS011;14024;52.226;5.200;2023-04-07T02:34:24;31.05;;;11.23;;
26319;SDS011;14024;52.226;5.200;2023-04-07T02:36:50;32.17;;;9.32;;
26319;SDS011;14024;52.226;5.200;2023-04-07T02:39:16;39.92;;;9.20;;
26319;SDS011;14024;52.226;5.200;2023-04-07T02:41:42;31.85;;;8.07;;
26319;SDS011;14024;52.226;5.200;2023-04-07T02:44:08;29.10;;;9.88;;
26319;SDS011;14024;52.226;5.200;2023-04-07T02:46:34;27.27;;;8.77;;
26319;SDS011;14024;52.226;5.200;2023-04-07T02:49:00;32.13;;;9.35;;
26319;SDS011;14024;52.226;5.200;2023-04-07T02:51:26;35.15;;;9.20;;
26319;SDS011;14024;52.226;5.200;2023-04-07T02:53:52;30.67;;;9.52;;
26319;SDS011;14024;52.226;5.200;2023-04-07T02:56:19;25.95;;;8.18;;
26319;SDS011;14024;52.226;5.200;2023-04-07T02:58:45;35.33;;;8.73;;
26319;SDS011;14024;52.226;5.200;2023-04-07T03:01:11;46.20;;;10.80;;
26319;SDS011;14024;52.226;5.200;2023-04-07T03:03:37;41.47;;;9.65;;
26319;SDS011;14024;52.226;5.200;2023-04-07T03:06:03;35.17;;;10.45;;
26319;SDS011;14024;52.226;5.200;2023-04-07T03:08:30;38.55;;;9.82;;
26319;SDS011;14024;52.226;5.200;2023-04-07T03:10:55;30.92;;;8.57;;
26319;SDS011;14024;52.226;5.200;2023-04-07T03:13:21;33.83;;;9.68;;
26319;SDS011;14024;52.226;5.200;2023-04-07T03:15:47;29.80;;;9.27;;
26319;SDS011;14024;52.226;5.200;2023-04-07T03:18:13;35.58;;;10.23;;
26319;SDS011;14024;52.226;5.200;2023-04-07T03:20:39;36.25;;;11.27;;
26319;SDS011;14024;52.226;5.200;2023-04-07T03:23:06;31.00;;;10.35;;
26319;SDS011;14024;52.226;5.200;2023-04-07T03:25:32;30.52;;;9.43;;
26319;SDS011;14024;52.226;5.200;2023-04-07T03:27:58;36.05;;;9.25;;
26319;SDS011;14024;52.226;5.200;2023-04-07T03:30:24;33.42;;;9.55;;
26319;SDS011;14024;52.226;5.200;2023-04-07T03:32:50;33.33;;;9.98;;
26319;SDS011;14024;52.226;5.200;2023-04-07T03:35:16;29.60;;;10.48;;
26319;SDS011;14024;52.226;5.200;2023-04-07T03:37:42;37.33;;;10.68;;
26319;SDS011;14024;52.226;5.200;2023-04-07T03:40:08;32.30;;;10.60;;
26319;SDS011;14024;52.226;5.200;2023-04-07T03:42:34;36.30;;;10.85;;
26319;SDS011;14024;52.226;5.200;2023-04-07T03:45:00;32.47;;;11.32;;
26319;SDS011;14024;52.226;5.200;2023-04-07T03:47:26;28.60;;;11.40;;
26319;SDS011;14024;52.226;5.200;2023-04-07T03:49:52;37.80;;;12.70;;
26319;SDS011;14024;52.226;5.200;2023-04-07T03:52:18;36.40;;;12.18;;
26319;SDS011;14024;52.226;5.200;2023-04-07T03:54:44;29.70;;;10.80;;
26319;SDS011;14024;52.226;5.200;2023-04-07T03:57:10;33.92;;;10.95;;
26319;SDS011;14024;52.226;5.200;2023-04-07T03:59:36;44.83;;;11.40;;
26319;SDS011;14024;52.226;5.200;2023-04-07T04:02:02;28.38;;;11.40;;
26319;SDS011;14024;52.226;5.200;2023-04-07T04:04:28;35.55;;;11.32;;
26319;SDS011;14024;52.226;5.200;2023-04-07T04:06:54;34.88;;;11.32;;
26319;SDS011;14024;52.226;5.200;2023-04-07T04:09:20;35.97;;;11.10;;
26319;SDS011;14024;52.226;5.200;2023-04-07T04:11:46;33.60;;;9.60;;
26319;SDS011;14024;52.226;5.200;2023-04-07T04:14:12;18.88;;;8.52;;
26319;SDS011;14024;52.226;5.200;2023-04-07T04:16:38;29.55;;;9.10;;
26319;SDS011;14024;52.226;5.200;2023-04-07T04:19:04;19.92;;;8.32;;
26319;SDS011;14024;52.226;5.200;2023-04-07T04:21:30;21.48;;;6.65;;
26319;SDS011;14024;52.226;5.200;2023-04-07T04:23:56;17.35;;;6.80;;
26319;SDS011;14024;52.226;5.200;2023-04-07T04:26:22;25.27;;;7.68;;
26319;SDS011;14024;52.226;5.200;2023-04-07T04:28:50;17.63;;;6.85;;
26319;SDS011;14024;52.226;5.200;2023-04-07T04:31:17;15.32;;;6.57;;
26319;SDS011;14024;52.226;5.200;2023-04-07T04:33:43;20.33;;;6.75;;
26319;SDS011;14024;52.226;5.200;2023-04-07T04:36:09;20.40;;;6.90;;
26319;SDS011;14024;52.226;5.200;2023-04-07T04:38:35;20.90;;;7.18;;
26319;SDS011;14024;52.226;5.200;2023-04-07T04:41:01;22.70;;;8.35;;
26319;SDS011;14024;52.226;5.200;2023-04-07T04:43:27;28.38;;;7.70;;
26319;SDS011;14024;52.226;5.200;2023-04-07T04:45:53;28.63;;;7.88;;
26319;SDS011;14024;52.226;5.200;2023-04-07T04:48:20;22.48;;;7.25;;
26319;SDS011;14024;52.226;5.200;2023-04-07T04:50:46;19.23;;;7.85;;
26319;SDS011;14024;52.226;5.200;2023-04-07T04:53:12;20.30;;;7.25;;
26319;SDS011;14024;52.226;5.200;2023-04-07T04:55:38;19.52;;;5.78;;
26319;SDS011;14024;52.226;5.200;2023-04-07T04:58:04;19.83;;;6.65;;
26319;SDS011;14024;52.226;5.200;2023-04-07T05:00:30;16.55;;;5.45;;
26319;SDS011;14024;52.226;5.200;2023-04-07T05:02:56;24.02;;;5.63;;
26319;SDS011;14024;52.226;5.200;2023-04-07T05:05:22;21.60;;;5.45;;
26319;SDS011;14024;52.226;5.200;2023-04-07T05:07:48;23.20;;;7.55;;
26319;SDS011;14024;52.226;5.200;2023-04-07T05:10:14;29.00;;;6.05;;
26319;SDS011;14024;52.226;5.200;2023-04-07T05:12:40;26.80;;;5.90;;
26319;SDS011;14024;52.226;5.200;2023-04-07T05:15:07;23.25;;;6.05;;
26319;SDS011;14024;52.226;5.200;2023-04-07T05:17:33;17.38;;;6.00;;
26319;SDS011;14024;52.226;5.200;2023-04-07T05:19:59;16.08;;;5.88;;
26319;SDS011;14024;52.226;5.200;2023-04-07T05:22:25;17.60;;;6.07;;
26319;SDS011;14024;52.226;5.200;2023-04-07T05:24:51;25.40;;;6.40;;
26319;SDS011;14024;52.226;5.200;2023-04-07T05:27:17;19.20;;;6.35;;
26319;SDS011;14024;52.226;5.200;2023-04-07T05:29:43;17.80;;;5.47;;
26319;SDS011;14024;52.226;5.200;2023-04-07T05:32:08;19.50;;;5.38;;
26319;SDS011;14024;52.226;5.200;2023-04-07T05:34:34;16.83;;;5.45;;
26319;SDS011;14024;52.226;5.200;2023-04-07T05:37:00;18.15;;;5.60;;
26319;SDS011;14024;52.226;5.200;2023-04-07T05:39:26;18.80;;;5.97;;
26319;SDS011;14024;52.226;5.200;2023-04-07T05:41:52;17.52;;;5.15;;
26319;SDS011;14024;52.226;5.200;2023-04-07T05:44:18;17.45;;;5.65;;
26319;SDS011;14024;52.226;5.200;2023-04-07T05:46:44;18.02;;;5.32;;
26319;SDS011;14024;52.226;5.200;2023-04-07T05:49:10;17.40;;;5.78;;
26319;SDS011;14024;52.226;5.200;2023-04-07T05:51:36;11.68;;;5.10;;
26319;SDS011;14024;52.226;5.200;2023-04-07T05:54:02;18.52;;;5.13;;
26319;SDS011;14024;52.226;5.200;2023-04-07T05:56:28;20.67;;;6.38;;
26319;SDS011;14024;52.226;5.200;2023-04-07T05:58:54;18.98;;;8.50;;
26319;SDS011;14024;52.226;5.200;2023-04-07T06:01:20;18.25;;;7.00;;
26319;SDS011;14024;52.226;5.200;2023-04-07T06:03:46;21.27;;;6.63;;
26319;SDS011;14024;52.226;5.200;2023-04-07T06:06:13;17.05;;;6.45;;
26319;SDS011;14024;52.226;5.200;2023-04-07T06:08:39;24.48;;;6.70;;
26319;SDS011;14024;52.226;5.200;2023-04-07T06:11:05;18.40;;;6.38;;
26319;SDS011;14024;52.226;5.200;2023-04-07T06:13:31;13.77;;;6.18;;
26319;SDS011;14024;52.226;5.200;2023-04-07T06:15:57;21.92;;;7.00;;
26319;SDS011;14024;52.226;5.200;2023-04-07T06:18:23;20.80;;;7.63;;
26319;SDS011;14024;52.226;5.200;2023-04-07T06:20:49;15.30;;;6.50;;
26319;SDS011;14024;52.226;5.200;2023-04-07T06:23:15;19.70;;;7.10;;
26319;SDS011;14024;52.226;5.200;2023-04-07T06:25:41;18.73;;;7.07;;
26319;SDS011;14024;52.226;5.200;2023-04-07T06:28:07;30.48;;;8.32;;
26319;SDS011;14024;52.226;5.200;2023-04-07T06:30:33;23.52;;;7.60;;
26319;SDS011;14024;52.226;5.200;2023-04-07T06:32:59;18.52;;;7.45;;
26319;SDS011;14024;52.226;5.200;2023-04-07T06:35:25;20.23;;;7.55;;
26319;SDS011;14024;52.226;5.200;2023-04-07T06:37:52;25.67;;;7.85;;
26319;SDS011;14024;52.226;5.200;2023-04-07T06:40:24;25.88;;;8.32;;
26319;SDS011;14024;52.226;5.200;2023-04-07T06:42:50;18.83;;;7.32;;
26319;SDS011;14024;52.226;5.200;2023-04-07T06:45:18;26.70;;;9.55;;
26319;SDS011;14024;52.226;5.200;2023-04-07T06:47:44;36.38;;;8.57;;
26319;SDS011;14024;52.226;5.200;2023-04-07T06:50:10;41.05;;;8.27;;
26319;SDS011;14024;52.226;5.200;2023-04-07T06:52:36;24.02;;;7.75;;
26319;SDS011;14024;52.226;5.200;2023-04-07T06:55:02;24.35;;;8.80;;
26319;SDS011;14024;52.226;5.200;2023-04-07T06:57:28;22.75;;;10.15;;
26319;SDS011;14024;52.226;5.200;2023-04-07T06:59:54;29.42;;;6.95;;
26319;SDS011;14024;52.226;5.200;2023-04-07T07:02:20;28.13;;;7.70;;
26319;SDS011;14024;52.226;5.200;2023-04-07T07:04:46;37.17;;;6.93;;
26319;SDS011;14024;52.226;5.200;2023-04-07T07:07:12;18.08;;;5.80;;
26319;SDS011;14024;52.226;5.200;2023-04-07T07:09:38;24.73;;;6.82;;
26319;SDS011;14024;52.226;5.200;2023-04-07T07:12:04;22.33;;;7.03;;
26319;SDS011;14024;52.226;5.200;2023-04-07T07:14:30;23.10;;;6.97;;
26319;SDS011;14024;52.226;5.200;2023-04-07T07:16:56;27.52;;;7.75;;
26319;SDS011;14024;52.226;5.200;2023-04-07T07:19:22;37.30;;;9.63;;
26319;SDS011;14024;52.226;5.200;2023-04-07T07:21:48;22.75;;;6.93;;
26319;SDS011;14024;52.226;5.200;2023-04-07T07:24:14;22.85;;;6.15;;
26319;SDS011;14024;52.226;5.200;2023-04-07T07:26:40;24.52;;;6.55;;
26319;SDS011;14024;52.226;5.200;2023-04-07T07:29:06;24.52;;;5.90;;
26319;SDS011;14024;52.226;5.200;2023-04-07T07:31:32;16.23;;;4.80;;
26319;SDS011;14024;52.226;5.200;2023-04-07T07:33:58;29.20;;;6.68;;
26319;SDS011;14024;52.226;5.200;2023-04-07T07:36:24;20.88;;;5.13;;
26319;SDS011;14024;52.226;5.200;2023-04-07T07:38:50;14.82;;;4.72;;
26319;SDS011;14024;52.226;5.200;2023-04-07T07:41:16;21.42;;;4.68;;
26319;SDS011;14024;52.226;5.200;2023-04-07T07:43:42;17.85;;;4.47;;
26319;SDS011;14024;52.226;5.200;2023-04-07T07:46:08;13.35;;;3.85;;
26319;SDS011;14024;52.226;5.200;2023-04-07T07:48:34;20.65;;;4.55;;
26319;SDS011;14024;52.226;5.200;2023-04-07T07:51:00;10.18;;;3.90;;
26319;SDS011;14024;52.226;5.200;2023-04-07T07:53:26;15.30;;;4.15;;
26319;SDS011;14024;52.226;5.200;2023-04-07T07:55:52;15.85;;;4.18;;
26319;SDS011;14024;52.226;5.200;2023-04-07T07:58:19;22.90;;;4.75;;
26319;SDS011;14024;52.226;5.200;2023-04-07T08:00:45;16.42;;;4.88;;
26319;SDS011;14024;52.226;5.200;2023-04-07T08:03:11;18.08;;;5.13;;
26319;SDS011;14024;52.226;5.200;2023-04-07T08:05:38;17.73;;;4.88;;
26319;SDS011;14024;52.226;5.200;2023-04-07T08:08:04;17.88;;;5.20;;
26319;SDS011;14024;52.226;5.200;2023-04-07T08:10:29;17.00;;;4.47;;
26319;SDS011;14024;52.226;5.200;2023-04-07T08:12:55;16.23;;;5.07;;
26319;SDS011;14024;52.226;5.200;2023-04-07T08:15:21;18.33;;;4.72;;
26319;SDS011;14024;52.226;5.200;2023-04-07T08:17:47;24.45;;;5.88;;
26319;SDS011;14024;52.226;5.200;2023-04-07T08:20:13;16.42;;;4.90;;
26319;SDS011;14024;52.226;5.200;2023-04-07T08:22:40;23.63;;;5.18;;
26319;SDS011;14024;52.226;5.200;2023-04-07T08:25:07;20.70;;;6.47;;
26319;SDS011;14024;52.226;5.200;2023-04-07T08:27:33;16.33;;;4.45;;
26319;SDS011;14024;52.226;5.200;2023-04-07T08:30:03;13.32;;;4.43;;
26319;SDS011;14024;52.226;5.200;2023-04-07T08:32:34;13.65;;;4.65;;
26319;SDS011;14024;52.226;5.200;2023-04-07T08:35:00;17.05;;;5.00;;
26319;SDS011;14024;52.226;5.200;2023-04-07T08:37:26;12.27;;;3.97;;
26319;SDS011;14024;52.226;5.200;2023-04-07T08:39:52;17.92;;;4.88;;
26319;SDS011;14024;52.226;5.200;2023-04-07T08:42:18;17.20;;;4.30;;
26319;SDS011;14024;52.226;5.200;2023-04-07T08:44:45;10.27;;;4.10;;
26319;SDS011;14024;52.226;5.200;2023-04-07T08:47:12;13.82;;;4.35;;
26319;SDS011;14024;52.226;5.200;2023-04-07T08:49:40;12.63;;;3.92;;
26319;SDS011;14024;52.226;5.200;2023-04-07T08:52:08;12.05;;;3.88;;
26319;SDS011;14024;52.226;5.200;2023-04-07T08:54:35;12.27;;;3.67;;
26319;SDS011;14024;52.226;5.200;2023-04-07T08:57:02;10.38;;;4.00;;
26319;SDS011;14024;52.226;5.200;2023-04-07T08:59:28;16.30;;;3.67;;
26319;SDS011;14024;52.226;5.200;2023-04-07T09:01:55;11.73;;;3.92;;
26319;SDS011;14024;52.226;5.200;2023-04-07T09:04:21;12.52;;;3.67;;
26319;SDS011;14024;52.226;5.200;2023-04-07T09:06:48;14.65;;;3.88;;
26319;SDS011;14024;52.226;5.200;2023-04-07T09:09:14;13.32;;;3.60;;
26319;SDS011;14024;52.226;5.200;2023-04-07T09:11:40;10.68;;;3.95;;
26319;SDS011;14024;52.226;5.200;2023-04-07T09:14:06;9.38;;;3.50;;
26319;SDS011;14024;52.226;5.200;2023-04-07T09:16:32;8.70;;;4.22;;
26319;SDS011;14024;52.226;5.200;2023-04-07T09:18:58;12.95;;;3.88;;
26319;SDS011;14024;52.226;5.200;2023-04-07T09:21:24;12.20;;;3.47;;
26319;SDS011;14024;52.226;5.200;2023-04-07T09:23:53;13.63;;;4.35;;
26319;SDS011;14024;52.226;5.200;2023-04-07T09:26:21;11.15;;;3.42;;
26319;SDS011;14024;52.226;5.200;2023-04-07T09:28:51;13.57;;;3.85;;
26319;SDS011;14024;52.226;5.200;2023-04-07T09:31:17;9.70;;;3.63;;
26319;SDS011;14024;52.226;5.200;2023-04-07T09:33:45;14.88;;;3.95;;
26319;SDS011;14024;52.226;5.200;2023-04-07T09:36:11;9.43;;;3.30;;
26319;SDS011;14024;52.226;5.200;2023-04-07T09:38:38;10.27;;;3.63;;
26319;SDS011;14024;52.226;5.200;2023-04-07T09:41:05;13.40;;;3.30;;
26319;SDS011;14024;52.226;5.200;2023-04-07T09:43:35;6.85;;;3.17;;
26319;SDS011;14024;52.226;5.200;2023-04-07T09:46:20;11.10;;;3.92;;
26319;SDS011;14024;52.226;5.200;2023-04-07T09:48:49;11.13;;;3.47;;
26319;SDS011;14024;52.226;5.200;2023-04-07T09:51:25;11.13;;;2.95;;
26319;SDS011;14024;52.226;5.200;2023-04-07T09:53:52;7.40;;;3.30;;
26319;SDS011;14024;52.226;5.200;2023-04-07T09:56:18;11.57;;;3.67;;
26319;SDS011;14024;52.226;5.200;2023-04-07T09:58:46;7.72;;;3.35;;
26319;SDS011;14024;52.226;5.200;2023-04-07T10:01:13;16.17;;;3.88;;
26319;SDS011;14024;52.226;5.200;2023-04-07T10:03:40;8.77;;;3.10;;
26319;SDS011;14024;52.226;5.200;2023-04-07T10:06:06;9.93;;;3.38;;
26319;SDS011;14024;52.226;5.200;2023-04-07T10:08:36;11.32;;;3.10;;
26319;SDS011;14024;52.226;5.200;2023-04-07T10:11:04;7.38;;;3.50;;
26319;SDS011;14024;52.226;5.200;2023-04-07T10:13:31;12.52;;;3.65;;
26319;SDS011;14024;52.226;5.200;2023-04-07T10:15:57;9.48;;;3.40;;
26319;SDS011;14024;52.226;5.200;2023-04-07T10:18:30;14.93;;;3.90;;
26319;SDS011;14024;52.226;5.200;2023-04-07T10:20:58;14.25;;;4.38;;
26319;SDS011;14024;52.226;5.200;2023-04-07T10:26:10;12.55;;;2.95;;
26319;SDS011;14024;52.226;5.200;2023-04-07T10:28:37;7.45;;;3.25;;
26319;SDS011;14024;52.226;5.200;2023-04-07T10:31:04;12.40;;;3.17;;
26319;SDS011;14024;52.226;5.200;2023-04-07T10:33:45;8.18;;;2.90;;
26319;SDS011;14024;52.226;5.200;2023-04-07T10:36:11;11.27;;;2.70;;
26319;SDS011;14024;52.226;5.200;2023-04-07T10:38:37;13.75;;;3.78;;
26319;SDS011;14024;52.226;5.200;2023-04-07T10:43:48;7.75;;;3.30;;
26319;SDS011;14024;52.226;5.200;2023-04-07T10:46:14;7.03;;;2.88;;
26319;SDS011;14024;52.226;5.200;2023-04-07T10:48:39;12.50;;;2.72;;
26319;SDS011;14024;52.226;5.200;2023-04-07T10:53:34;6.82;;;3.85;;
26319;SDS011;14024;52.226;5.200;2023-04-07T10:56:01;8.80;;;3.35;;
26319;SDS011;14024;52.226;5.200;2023-04-07T10:58:30;13.50;;;3.20;;
26319;SDS011;14024;52.226;5.200;2023-04-07T11:03:26;8.32;;;2.92;;
26319;SDS011;14024;52.226;5.200;2023-04-07T11:05:52;10.07;;;3.25;;
26319;SDS011;14024;52.226;5.200;2023-04-07T11:10:59;9.25;;;3.28;;
26319;SDS011;14024;52.226;5.200;2023-04-07T11:13:25;6.90;;;2.90;;
26319;SDS011;14024;52.226;5.200;2023-04-07T11:15:51;3.92;;;2.28;;
26319;SDS011;14024;52.226;5.200;2023-04-07T11:18:18;7.55;;;3.05;;
26319;SDS011;14024;52.226;5.200;2023-04-07T11:23:14;7.90;;;2.65;;
26319;SDS011;14024;52.226;5.200;2023-04-07T11:25:41;7.95;;;3.38;;
26319;SDS011;14024;52.226;5.200;2023-04-07T11:28:08;12.07;;;3.60;;
26319;SDS011;14024;52.226;5.200;2023-04-07T11:30:36;13.32;;;3.33;;
26319;SDS011;14024;52.226;5.200;2023-04-07T11:33:02;9.88;;;3.88;;
26319;SDS011;14024;52.226;5.200;2023-04-07T11:35:28;13.88;;;3.63;;
26319;SDS011;14024;52.226;5.200;2023-04-07T11:37:58;13.27;;;3.50;;
26319;SDS011;14024;52.226;5.200;2023-04-07T11:40:33;13.20;;;3.83;;
26319;SDS011;14024;52.226;5.200;2023-04-07T11:43:00;11.88;;;3.50;;
26319;SDS011;14024;52.226;5.200;2023-04-07T11:45:26;9.63;;;3.65;;
26319;SDS011;14024;52.226;5.200;2023-04-07T11:47:52;16.52;;;3.53;;
26319;SDS011;14024;52.226;5.200;2023-04-07T11:50:40;10.98;;;3.22;;
26319;SDS011;14024;52.226;5.200;2023-04-07T11:53:07;10.75;;;3.45;;
26319;SDS011;14024;52.226;5.200;2023-04-07T11:55:33;13.85;;;4.22;;
26319;SDS011;14024;52.226;5.200;2023-04-07T11:58:06;11.13;;;3.30;;
26319;SDS011;14024;52.226;5.200;2023-04-07T12:00:34;9.70;;;4.10;;
26319;SDS011;14024;52.226;5.200;2023-04-07T12:03:10;6.18;;;2.90;;
26319;SDS011;14024;52.226;5.200;2023-04-07T12:05:43;8.80;;;3.47;;
26319;SDS011;14024;52.226;5.200;2023-04-07T12:08:09;16.38;;;3.70;;
26319;SDS011;14024;52.226;5.200;2023-04-07T12:10:35;10.55;;;3.60;;
26319;SDS011;14024;52.226;5.200;2023-04-07T12:13:04;12.88;;;4.32;;
26319;SDS011;14024;52.226;5.200;2023-04-07T12:15:31;12.15;;;5.13;;
26319;SDS011;14024;52.226;5.200;2023-04-07T12:17:57;16.23;;;5.93;;
26319;SDS011;14024;52.226;5.200;2023-04-07T12:20:23;17.75;;;4.82;;
26319;SDS011;14024;52.226;5.200;2023-04-07T12:22:49;10.02;;;4.45;;
26319;SDS011;14024;52.226;5.200;2023-04-07T12:25:15;17.17;;;5.07;;
26319;SDS011;14024;52.226;5.200;2023-04-07T12:27:41;9.93;;;4.63;;
26319;SDS011;14024;52.226;5.200;2023-04-07T12:30:07;8.73;;;4.35;;
26319;SDS011;14024;52.226;5.200;2023-04-07T12:32:33;18.30;;;5.32;;
26319;SDS011;14024;52.226;5.200;2023-04-07T12:34:59;13.05;;;4.70;;
26319;SDS011;14024;52.226;5.200;2023-04-07T12:37:26;13.05;;;4.10;;
26319;SDS011;14024;52.226;5.200;2023-04-07T12:39:52;8.98;;;3.97;;
26319;SDS011;14024;52.226;5.200;2023-04-07T12:42:18;14.32;;;4.25;;
26319;SDS011;14024;52.226;5.200;2023-04-07T12:44:44;11.88;;;4.35;;
26319;SDS011;14024;52.226;5.200;2023-04-07T12:47:10;14.40;;;4.95;;
26319;SDS011;14024;52.226;5.200;2023-04-07T12:49:36;14.57;;;4.60;;
26319;SDS011;14024;52.226;5.200;2023-04-07T12:52:02;14.73;;;4.05;;
26319;SDS011;14024;52.226;5.200;2023-04-07T12:54:29;9.65;;;4.20;;
26319;SDS011;14024;52.226;5.200;2023-04-07T12:56:55;11.18;;;4.00;;
26319;SDS011;14024;52.226;5.200;2023-04-07T12:59:22;11.32;;;4.38;;
26319;SDS011;14024;52.226;5.200;2023-04-07T13:01:48;9.98;;;4.60;;
26319;SDS011;14024;52.226;5.200;2023-04-07T13:04:15;9.93;;;4.45;;
26319;SDS011;14024;52.226;5.200;2023-04-07T13:06:41;12.32;;;4.07;;
26319;SDS011;14024;52.226;5.200;2023-04-07T13:09:07;11.20;;;3.97;;
26319;SDS011;14024;52.226;5.200;2023-04-07T13:11:33;12.40;;;6.05;;
26319;SDS011;14024;52.226;5.200;2023-04-07T13:14:00;16.23;;;5.35;;
26319;SDS011;14024;52.226;5.200;2023-04-07T13:16:26;10.55;;;4.53;;
26319;SDS011;14024;52.226;5.200;2023-04-07T13:18:52;15.00;;;4.53;;
26319;SDS011;14024;52.226;5.200;2023-04-07T13:21:18;20.67;;;4.88;;
26319;SDS011;14024;52.226;5.200;2023-04-07T13:23:45;12.40;;;4.50;;
26319;SDS011;14024;52.226;5.200;2023-04-07T13:26:12;12.90;;;4.55;;
26319;SDS011;14024;52.226;5.200;2023-04-07T13:28:38;10.95;;;4.93;;
26319;SDS011;14024;52.226;5.200;2023-04-07T13:31:05;8.18;;;4.38;;
26319;SDS011;14024;52.226;5.200;2023-04-07T13:33:31;13.45;;;4.90;;
26319;SDS011;14024;52.226;5.200;2023-04-07T13:35:57;16.13;;;5.50;;
26319;SDS011;14024;52.226;5.200;2023-04-07T13:38:23;16.30;;;6.13;;
26319;SDS011;14024;52.226;5.200;2023-04-07T13:40:49;25.05;;;8.05;;
26319;SDS011;14024;52.226;5.200;2023-04-07T13:43:15;18.65;;;7.45;;
26319;SDS011;14024;52.226;5.200;2023-04-07T13:45:42;21.58;;;8.15;;
26319;SDS011;14024;52.226;5.200;2023-04-07T13:48:08;24.55;;;8.60;;
26319;SDS011;14024;52.226;5.200;2023-04-07T13:50:35;20.58;;;7.65;;
26319;SDS011;14024;52.226;5.200;2023-04-07T13:53:01;22.30;;;6.88;;
26319;SDS011;14024;52.226;5.200;2023-04-07T13:55:27;17.17;;;6.38;;
26319;SDS011;14024;52.226;5.200;2023-04-07T13:57:53;19.67;;;7.28;;
26319;SDS011;14024;52.226;5.200;2023-04-07T14:00:19;16.00;;;6.40;;
26319;SDS011;14024;52.226;5.200;2023-04-07T14:02:45;16.65;;;6.63;;
26319;SDS011;14024;52.226;5.200;2023-04-07T14:05:13;16.10;;;6.15;;
26319;SDS011;14024;52.226;5.200;2023-04-07T14:07:39;17.15;;;6.47;;
26319;SDS011;14024;52.226;5.200;2023-04-07T14:10:05;16.17;;;6.05;;
26319;SDS011;14024;52.226;5.200;2023-04-07T14:12:31;17.98;;;6.65;;
26319;SDS011;14024;52.226;5.200;2023-04-07T14:14:58;17.73;;;5.78;;
26319;SDS011;14024;52.226;5.200;2023-04-07T14:17:24;16.17;;;6.65;;
26319;SDS011;14024;52.226;5.200;2023-04-07T14:19:50;20.05;;;6.47;;
26319;SDS011;14024;52.226;5.200;2023-04-07T14:22:16;23.63;;;8.65;;
26319;SDS011;14024;52.226;5.200;2023-04-07T14:24:42;36.67;;;9.40;;
26319;SDS011;14024;52.226;5.200;2023-04-07T14:27:09;25.65;;;8.52;;
26319;SDS011;14024;52.226;5.200;2023-04-07T14:29:35;18.60;;;7.30;;
26319;SDS011;14024;52.226;5.200;2023-04-07T14:32:01;13.07;;;7.13;;
26319;SDS011;14024;52.226;5.200;2023-04-07T14:34:26;19.40;;;6.50;;
26319;SDS011;14024;52.226;5.200;2023-04-07T14:36:53;18.40;;;6.43;;
26319;SDS011;14024;52.226;5.200;2023-04-07T14:39:20;18.52;;;8.07;;
26319;SDS011;14024;52.226;5.200;2023-04-07T14:41:46;57.30;;;21.13;;
26319;SDS011;14024;52.226;5.200;2023-04-07T14:44:12;28.02;;;11.05;;
26319;SDS011;14024;52.226;5.200;2023-04-07T14:46:38;21.70;;;8.57;;
26319;SDS011;14024;52.226;5.200;2023-04-07T14:49:06;18.17;;;7.70;;
26319;SDS011;14024;52.226;5.200;2023-04-07T14:51:32;21.58;;;8.73;;
26319;SDS011;14024;52.226;5.200;2023-04-07T14:53:58;23.05;;;10.20;;